createdAt,value
2023-05-09T00:01:15.042Z,100.00
2023-05-09T00:03:44.451Z,100.00
2023-05-09T00:06:13.393Z,100.00
2023-05-09T00:08:41.513Z,100.00
2023-05-09T00:11:11.785Z,100.00
2023-05-09T00:13:44.165Z,100.00
2023-05-09T00:16:12.024Z,100.00
2023-05-09T00:18:42.263Z,100.00
2023-05-09T00:21:12.072Z,100.00
2023-05-09T00:23:40.027Z,100.00
2023-05-09T00:26:07.996Z,100.00
2023-05-09T00:28:36.236Z,100.00
2023-05-09T00:31:04.955Z,100.00
2023-05-09T00:33:32.804Z,100.00
2023-05-09T00:36:00.753Z,100.00
2023-05-09T00:38:30.855Z,100.00
2023-05-09T00:40:58.805Z,100.00
2023-05-09T00:43:26.626Z,100.00
2023-05-09T00:45:54.723Z,100.00
2023-05-09T00:48:22.699Z,99.87
2023-05-09T00:50:52.956Z,99.38
2023-05-09T00:53:20.980Z,98.40
2023-05-09T00:55:53.420Z,97.74
2023-05-09T00:58:22.044Z,97.91
2023-05-09T01:00:49.906Z,97.83
2023-05-09T01:03:18.051Z,97.65
2023-05-09T01:05:59.428Z,98.22
2023-05-09T01:08:45.952Z,100.00
2023-05-09T01:11:23.871Z,100.00
2023-05-09T01:14:00.998Z,99.70
2023-05-09T01:16:36.893Z,99.07
2023-05-09T01:19:22.308Z,98.52
2023-05-09T01:21:51.267Z,98.05
2023-05-09T01:24:33.172Z,98.44
2023-05-09T01:27:22.303Z,98.17
2023-05-09T01:29:57.956Z,97.55
2023-05-09T01:32:28.137Z,97.14
2023-05-09T01:34:57.864Z,97.57
2023-05-09T01:37:30.662Z,97.03
2023-05-09T01:40:01.578Z,97.76
2023-05-09T01:42:40.489Z,100.00
2023-05-09T01:45:11.829Z,100.00
2023-05-09T01:47:43.525Z,100.00
2023-05-09T01:50:13.171Z,100.00
2023-05-09T01:52:43.785Z,100.00
2023-05-09T01:55:13.301Z,100.00
2023-05-09T01:57:41.656Z,100.00
2023-05-09T02:00:14.340Z,100.00
2023-05-09T02:02:43.215Z,100.00
2023-05-09T02:05:12.984Z,100.00
2023-05-09T02:07:42.751Z,100.00
2023-05-09T02:10:11.357Z,100.00
2023-05-09T02:12:39.412Z,100.00
2023-05-09T02:15:08.884Z,100.00
2023-05-09T02:17:43.272Z,100.00
2023-05-09T02:20:12.162Z,100.00
2023-05-09T02:22:41.500Z,100.00
2023-05-09T02:25:10.982Z,100.00
2023-05-09T02:27:41.346Z,100.00
2023-05-09T02:30:13.091Z,100.00
2023-05-09T02:32:44.286Z,100.00
2023-05-09T02:35:16.357Z,100.00
2023-05-09T02:37:45.531Z,100.00
2023-05-09T02:40:14.430Z,99.40
2023-05-09T02:42:42.344Z,99.13
2023-05-09T02:45:12.955Z,98.71
2023-05-09T02:47:42.349Z,98.33
2023-05-09T02:50:10.582Z,99.08
2023-05-09T02:52:39.659Z,99.59
2023-05-09T02:55:08.627Z,99.32
2023-05-09T02:57:39.810Z,99.02
2023-05-09T03:00:09.672Z,99.09
2023-05-09T03:02:37.977Z,98.62
2023-05-09T03:05:10.595Z,98.19
2023-05-09T03:07:38.545Z,97.85
2023-05-09T03:10:07.807Z,97.49
2023-05-09T03:12:35.663Z,96.96
2023-05-09T03:15:03.651Z,96.26
2023-05-09T03:17:31.559Z,96.00
2023-05-09T03:20:01.012Z,95.49
2023-05-09T03:22:31.616Z,95.80
2023-05-09T03:25:04.075Z,95.89
2023-05-09T03:27:31.889Z,96.12
2023-05-09T03:29:59.747Z,96.16
2023-05-09T03:32:29.825Z,95.74
2023-05-09T03:34:57.745Z,96.54
2023-05-09T03:37:27.345Z,95.72
2023-05-09T03:39:56.830Z,94.77
2023-05-09T03:42:24.674Z,95.74
2023-05-09T03:44:56.927Z,94.67
2023-05-09T03:47:24.924Z,94.07
2023-05-09T03:49:53.545Z,94.43
2023-05-09T03:52:23.518Z,94.20
2023-05-09T03:54:52.002Z,94.70
2023-05-09T03:57:23.653Z,94.14
2023-05-09T03:59:53.925Z,93.63
2023-05-09T04:02:24.649Z,95.02
2023-05-09T04:04:53.019Z,94.78
2023-05-09T04:07:23.156Z,94.55
2023-05-09T04:09:51.020Z,94.22
2023-05-09T04:12:18.838Z,94.12
2023-05-09T04:14:49.006Z,93.89
2023-05-09T04:17:18.001Z,93.52
2023-05-09T04:19:46.515Z,93.58
2023-05-09T04:22:14.380Z,93.36
2023-05-09T04:24:42.626Z,94.95
2023-05-09T04:27:10.539Z,94.96
2023-05-09T04:29:43.254Z,97.27
2023-05-09T04:32:12.682Z,95.86
2023-05-09T04:34:40.806Z,98.78
2023-05-09T04:37:16.037Z,100.00
2023-05-09T04:39:54.981Z,100.00
2023-05-09T04:42:36.096Z,100.00
2023-05-09T04:45:04.193Z,99.63
2023-05-09T04:47:33.362Z,97.78
2023-05-09T04:50:01.266Z,96.96
2023-05-09T04:52:29.156Z,96.42
2023-05-09T04:54:57.614Z,95.86
2023-05-09T04:57:28.971Z,95.31
2023-05-09T04:59:59.120Z,94.64
2023-05-09T05:02:26.921Z,95.51
2023-05-09T05:05:10.152Z,94.71
2023-05-09T05:07:40.693Z,94.27
2023-05-09T05:10:10.476Z,94.61
2023-05-09T05:12:40.169Z,94.82
2023-05-09T05:15:12.036Z,94.62
2023-05-09T05:17:40.613Z,94.37
2023-05-09T05:20:12.078Z,93.06
2023-05-09T05:22:45.074Z,93.16
2023-05-09T05:25:14.256Z,92.38
2023-05-09T05:27:43.820Z,92.93
2023-05-09T05:30:15.669Z,93.16
2023-05-09T05:32:44.690Z,95.84
2023-05-09T05:35:15.643Z,93.83
2023-05-09T05:37:44.276Z,92.98
2023-05-09T05:40:12.954Z,90.96
2023-05-09T05:42:46.614Z,92.68
2023-05-09T05:45:14.869Z,91.36
2023-05-09T05:47:47.317Z,89.92
2023-05-09T05:50:19.714Z,89.64
2023-05-09T05:52:48.360Z,89.45
2023-05-09T05:55:18.719Z,90.95
2023-05-09T05:57:47.685Z,90.53
2023-05-09T06:00:18.175Z,90.58
2023-05-09T06:02:50.651Z,90.74
2023-05-09T06:05:37.056Z,89.33
2023-05-09T06:08:08.120Z,89.78
2023-05-09T06:10:39.926Z,89.14
2023-05-09T06:13:08.144Z,87.29
2023-05-09T06:15:38.386Z,88.07
2023-05-09T06:18:07.066Z,87.22
2023-05-09T06:20:36.818Z,86.68
2023-05-09T06:23:04.604Z,86.43
2023-05-09T06:25:33.241Z,85.65
2023-05-09T06:28:01.300Z,83.06
2023-05-09T06:30:29.245Z,83.42
2023-05-09T06:32:58.212Z,84.54
2023-05-09T06:35:28.029Z,83.40
2023-05-09T06:37:57.277Z,83.45
2023-05-09T06:40:27.112Z,83.43
2023-05-09T06:42:55.478Z,83.71
2023-05-09T06:45:24.046Z,83.27
2023-05-09T06:47:51.961Z,81.91
2023-05-09T06:50:19.861Z,83.70
2023-05-09T06:52:48.323Z,82.84
2023-05-09T06:55:17.797Z,81.17
2023-05-09T06:57:45.720Z,81.07
2023-05-09T07:00:15.030Z,80.16
2023-05-09T07:02:43.154Z,78.93
2023-05-09T07:05:11.502Z,79.32
2023-05-09T07:07:39.408Z,80.87
2023-05-09T07:10:11.955Z,80.73
2023-05-09T07:12:41.957Z,79.04
2023-05-09T07:15:11.185Z,78.17
2023-05-09T07:17:39.266Z,76.88
2023-05-09T07:20:08.346Z,72.84
2023-05-09T07:22:37.446Z,74.80
2023-05-09T07:25:08.358Z,74.64
2023-05-09T07:27:36.817Z,74.37
2023-05-09T07:30:09.155Z,75.06
2023-05-09T07:32:37.056Z,74.68
2023-05-09T07:35:05.736Z,72.83
2023-05-09T07:37:33.621Z,74.23
2023-05-09T07:40:01.535Z,72.64
2023-05-09T07:42:30.276Z,74.14
2023-05-09T07:44:59.134Z,71.22
2023-05-09T07:47:28.533Z,71.80
2023-05-09T07:49:56.353Z,71.14
2023-05-09T07:52:24.095Z,72.13
2023-05-09T07:54:51.959Z,70.37
2023-05-09T07:57:19.731Z,69.44
2023-05-09T07:59:47.524Z,68.37
2023-05-09T08:02:15.326Z,68.79
2023-05-09T08:04:44.607Z,68.10
2023-05-09T08:07:12.507Z,63.91
2023-05-09T08:09:40.240Z,63.79
2023-05-09T08:12:10.177Z,64.28
2023-05-09T08:14:37.960Z,65.22
2023-05-09T08:17:05.874Z,63.43
2023-05-09T08:19:33.760Z,61.80
2023-05-09T08:22:03.110Z,62.67
2023-05-09T08:24:31.839Z,65.08
2023-05-09T08:26:59.919Z,64.88
2023-05-09T08:29:28.987Z,63.67
2023-05-09T08:31:56.905Z,62.26
2023-05-09T08:34:24.805Z,60.27
2023-05-09T08:36:55.363Z,58.64
2023-05-09T08:39:24.497Z,58.80
2023-05-09T08:41:52.937Z,58.22
2023-05-09T08:44:21.572Z,59.87
2023-05-09T08:46:53.203Z,58.89
2023-05-09T08:49:21.973Z,57.66
2023-05-09T08:51:53.087Z,54.64
2023-05-09T08:54:22.876Z,55.00
2023-05-09T08:56:52.471Z,54.57
2023-05-09T08:59:23.580Z,57.05
2023-05-09T09:01:52.336Z,52.60
2023-05-09T09:04:20.554Z,53.08
2023-05-09T09:06:48.918Z,56.16
2023-05-09T09:09:20.250Z,54.17
2023-05-09T09:11:49.044Z,53.68
2023-05-09T09:14:25.480Z,52.59
2023-05-09T09:16:55.676Z,52.65
2023-05-09T09:19:26.942Z,55.13
2023-05-09T09:21:56.084Z,55.38
2023-05-09T09:24:24.224Z,52.73
2023-05-09T09:26:54.525Z,54.60
2023-05-09T09:29:24.544Z,52.40
2023-05-09T09:31:54.840Z,54.97
2023-05-09T09:34:24.325Z,53.03
2023-05-09T09:36:52.236Z,55.05
2023-05-09T09:39:21.702Z,53.61
2023-05-09T09:41:49.832Z,56.07
2023-05-09T09:44:19.665Z,54.41
2023-05-09T09:46:50.484Z,56.69
2023-05-09T09:49:19.986Z,55.21
2023-05-09T09:51:51.945Z,53.93
2023-05-09T09:54:20.251Z,51.67
2023-05-09T09:56:49.411Z,52.21
2023-05-09T09:59:18.885Z,51.45
2023-05-09T10:01:59.317Z,51.36
2023-05-09T10:04:29.591Z,51.43
2023-05-09T10:06:59.287Z,50.90
2023-05-09T10:09:28.884Z,51.35
2023-05-09T10:11:57.982Z,49.80
2023-05-09T10:14:27.430Z,50.67
2023-05-09T10:16:58.427Z,51.04
2023-05-09T10:19:29.552Z,49.29
2023-05-09T10:21:58.828Z,49.48
2023-05-09T10:24:30.635Z,49.98
2023-05-09T10:27:05.353Z,50.69
2023-05-09T10:29:36.998Z,49.47
2023-05-09T10:32:15.919Z,50.03
2023-05-09T10:34:48.684Z,49.37
2023-05-09T10:37:17.736Z,48.64
2023-05-09T10:39:45.786Z,47.58
2023-05-09T10:42:14.176Z,47.89
2023-05-09T10:44:42.653Z,47.79
2023-05-09T10:47:15.579Z,48.13
2023-05-09T10:49:44.360Z,49.64
2023-05-09T10:52:19.437Z,48.10
2023-05-09T10:55:02.337Z,47.63
2023-05-09T10:57:32.529Z,48.01
2023-05-09T11:00:01.357Z,48.16
2023-05-09T11:02:32.760Z,48.71
2023-05-09T11:05:18.551Z,48.54
2023-05-09T11:07:46.652Z,46.67
2023-05-09T11:10:18.964Z,47.01
2023-05-09T11:12:58.500Z,47.49
2023-05-09T11:15:27.858Z,46.12
2023-05-09T11:18:08.849Z,46.13
2023-05-09T11:20:37.524Z,46.17
2023-05-09T11:23:06.917Z,44.20
2023-05-09T11:25:37.177Z,46.24
2023-05-09T11:28:05.439Z,48.14
2023-05-09T11:30:39.442Z,45.60
2023-05-09T11:33:23.254Z,44.55
2023-05-09T11:36:20.036Z,43.99
2023-05-09T11:38:48.801Z,44.78
2023-05-09T11:41:17.367Z,46.77
2023-05-09T11:43:45.558Z,46.23
2023-05-09T11:46:13.853Z,45.97
2023-05-09T11:48:43.178Z,44.69
2023-05-09T11:51:18.235Z,46.68
2023-05-09T11:53:47.164Z,47.09
2023-05-09T11:56:15.556Z,45.12
2023-05-09T11:58:44.105Z,46.28
2023-05-09T12:01:15.209Z,45.52
2023-05-09T12:03:46.027Z,46.17
2023-05-09T12:06:18.346Z,47.05
2023-05-09T12:08:47.074Z,47.94
2023-05-09T12:11:15.781Z,47.06
2023-05-09T12:13:48.416Z,47.00
2023-05-09T12:16:17.250Z,48.34
2023-05-09T12:18:47.733Z,46.70
2023-05-09T12:21:15.714Z,46.02
2023-05-09T12:23:48.948Z,44.91
2023-05-09T12:26:18.659Z,46.52
2023-05-09T12:28:46.809Z,46.16
2023-05-09T12:31:14.962Z,46.27
2023-05-09T12:33:42.954Z,46.76
2023-05-09T12:36:15.932Z,47.90
2023-05-09T12:38:53.606Z,47.81
2023-05-09T12:41:35.051Z,48.79
2023-05-09T12:44:05.488Z,48.14
2023-05-09T12:46:34.564Z,47.78
2023-05-09T12:49:03.525Z,47.56
2023-05-09T12:51:32.622Z,47.77
2023-05-09T12:54:04.388Z,48.45
2023-05-09T12:56:35.539Z,49.24
2023-05-09T12:59:03.391Z,48.01
2023-05-09T13:01:31.614Z,48.46
2023-05-09T13:04:04.034Z,48.98
2023-05-09T13:06:36.104Z,48.88
2023-05-09T13:09:07.814Z,46.11
2023-05-09T13:11:37.731Z,47.26
2023-05-09T13:14:05.707Z,48.23
2023-05-09T13:16:34.048Z,48.95
2023-05-09T13:19:02.448Z,48.80
2023-05-09T13:21:30.164Z,47.37
2023-05-09T13:23:59.289Z,47.04
2023-05-09T13:26:27.572Z,46.47
2023-05-09T13:28:55.345Z,47.17
2023-05-09T13:31:23.512Z,47.58
2023-05-09T13:33:52.105Z,47.51
2023-05-09T13:36:20.790Z,46.42
2023-05-09T13:38:48.990Z,46.81
2023-05-09T13:41:23.524Z,46.68
2023-05-09T13:43:51.608Z,48.34
2023-05-09T13:46:19.484Z,47.43
2023-05-09T13:48:47.849Z,47.31
2023-05-09T13:51:18.076Z,47.21
2023-05-09T13:53:45.881Z,46.51
2023-05-09T13:56:13.866Z,47.26
2023-05-09T13:58:43.001Z,47.03
2023-05-09T14:01:11.348Z,48.04
2023-05-09T14:03:39.453Z,46.34
2023-05-09T14:06:09.243Z,45.75
2023-05-09T14:08:37.162Z,46.19
2023-05-09T14:11:05.299Z,45.75
2023-05-09T14:13:33.104Z,47.15
2023-05-09T14:16:02.329Z,47.23
2023-05-09T14:18:30.213Z,47.34
2023-05-09T14:20:58.095Z,46.84
2023-05-09T14:23:25.922Z,47.34
2023-05-09T14:25:53.964Z,48.55
2023-05-09T14:28:21.883Z,47.81
2023-05-09T14:30:49.744Z,47.63
2023-05-09T14:33:23.363Z,48.57
2023-05-09T14:35:51.167Z,48.21
2023-05-09T14:38:19.154Z,48.27
2023-05-09T14:40:47.076Z,48.98
2023-05-09T14:43:15.732Z,48.68
2023-05-09T14:45:43.551Z,49.66
2023-05-09T14:48:12.249Z,50.63
2023-05-09T14:50:42.519Z,50.22
2023-05-09T14:53:11.255Z,50.76
2023-05-09T14:55:39.165Z,50.96
2023-05-09T14:58:07.756Z,52.33
2023-05-09T15:00:37.988Z,50.21
2023-05-09T15:03:06.010Z,50.19
2023-05-09T15:05:33.829Z,50.38
2023-05-09T15:08:03.056Z,49.01
2023-05-09T15:10:31.691Z,49.99
2023-05-09T15:13:05.917Z,50.06
2023-05-09T15:15:33.985Z,51.22
2023-05-09T15:18:04.406Z,49.67
2023-05-09T15:20:32.361Z,49.47
2023-05-09T15:23:00.363Z,49.59
2023-05-09T15:25:29.470Z,49.27
2023-05-09T15:27:57.397Z,47.29
2023-05-09T15:30:27.585Z,49.03
2023-05-09T15:32:55.558Z,48.02
2023-05-09T15:35:23.532Z,49.64
2023-05-09T15:37:51.460Z,50.50
2023-05-09T15:40:21.706Z,50.83
2023-05-09T15:42:51.100Z,51.73
2023-05-09T15:45:20.373Z,50.42
2023-05-09T15:47:50.969Z,49.80
2023-05-09T15:50:21.228Z,51.52
2023-05-09T15:52:49.754Z,50.33
2023-05-09T15:55:18.175Z,50.96
2023-05-09T15:57:48.181Z,51.23
2023-05-09T16:00:18.278Z,50.73
2023-05-09T16:02:46.267Z,50.85
2023-05-09T16:05:14.282Z,50.46
2023-05-09T16:07:44.942Z,50.52
2023-05-09T16:10:13.483Z,50.28
2023-05-09T16:12:41.533Z,51.12
2023-05-09T16:15:10.781Z,50.12
2023-05-09T16:17:40.060Z,51.47
2023-05-09T16:20:09.269Z,50.37
2023-05-09T16:22:37.586Z,51.54
2023-05-09T16:25:07.435Z,52.09
2023-05-09T16:27:35.915Z,52.41
2023-05-09T16:30:03.971Z,58.18
2023-05-09T16:32:31.966Z,60.30
2023-05-09T16:35:04.182Z,60.61
2023-05-09T16:37:33.503Z,62.57
2023-05-09T16:40:04.411Z,66.26
2023-05-09T16:42:32.516Z,68.73
2023-05-09T16:45:00.326Z,68.53
2023-05-09T16:47:28.727Z,69.55
2023-05-09T16:49:56.514Z,71.60
2023-05-09T16:52:25.751Z,72.25
2023-05-09T16:54:54.688Z,73.23
2023-05-09T16:57:22.762Z,73.60
2023-05-09T16:59:53.333Z,76.37
2023-05-09T17:02:21.275Z,75.58
2023-05-09T17:04:49.488Z,75.45
2023-05-09T17:07:17.417Z,73.56
2023-05-09T17:09:48.213Z,71.41
2023-05-09T17:12:18.081Z,72.71
2023-05-09T17:14:46.325Z,74.35
2023-05-09T17:17:14.759Z,73.51
2023-05-09T17:19:42.738Z,74.39
2023-05-09T17:22:10.961Z,75.47
2023-05-09T17:24:38.866Z,76.72
2023-05-09T17:27:08.139Z,76.97
2023-05-09T17:29:36.367Z,77.74
2023-05-09T17:32:04.354Z,76.04
2023-05-09T17:34:32.435Z,74.29
2023-05-09T17:37:01.949Z,72.98
2023-05-09T17:39:32.565Z,72.62
2023-05-09T17:42:00.924Z,74.27
2023-05-09T17:44:30.184Z,72.04
2023-05-09T17:46:58.864Z,71.32
2023-05-09T17:49:27.743Z,73.18
2023-05-09T17:51:56.348Z,76.65
2023-05-09T17:54:24.736Z,78.63
2023-05-09T17:56:58.930Z,78.86
2023-05-09T17:59:27.033Z,79.29
2023-05-09T18:01:57.839Z,80.14
2023-05-09T18:04:31.900Z,78.12
2023-05-09T18:07:04.140Z,77.98
2023-05-09T18:09:40.532Z,80.34
2023-05-09T18:12:13.496Z,82.21
2023-05-09T18:14:47.724Z,84.43
2023-05-09T18:17:17.258Z,82.62
2023-05-09T18:19:45.777Z,82.98
2023-05-09T18:22:15.704Z,86.32
2023-05-09T18:24:44.916Z,83.11
2023-05-09T18:27:15.425Z,84.23
2023-05-09T18:29:45.251Z,87.99
2023-05-09T18:32:14.070Z,84.88
2023-05-09T18:34:48.405Z,82.95
2023-05-09T18:37:17.046Z,84.30
2023-05-09T18:39:48.929Z,88.05
2023-05-09T18:42:17.014Z,86.41
2023-05-09T18:44:46.069Z,86.40
2023-05-09T18:47:15.319Z,88.67
2023-05-09T18:49:43.470Z,87.38
2023-05-09T18:52:12.962Z,88.36
2023-05-09T18:54:41.180Z,87.77
2023-05-09T18:57:09.962Z,88.07
2023-05-09T18:59:40.683Z,87.42
2023-05-09T19:02:09.056Z,87.96
2023-05-09T19:04:36.959Z,87.78
2023-05-09T19:07:04.811Z,86.54
2023-05-09T19:09:34.035Z,87.04
2023-05-09T19:12:05.035Z,87.40
2023-05-09T19:14:33.143Z,86.27
2023-05-09T19:17:01.022Z,86.33
2023-05-09T19:19:28.909Z,87.39
2023-05-09T19:21:57.047Z,86.76
2023-05-09T19:24:24.866Z,85.05
2023-05-09T19:26:54.171Z,85.47
2023-05-09T19:29:22.050Z,89.71
2023-05-09T19:31:50.047Z,89.12
2023-05-09T19:34:17.926Z,87.73
2023-05-09T19:36:45.691Z,86.52
2023-05-09T19:39:13.679Z,85.86
2023-05-09T19:41:42.002Z,86.11
2023-05-09T19:44:11.203Z,86.73
2023-05-09T19:46:42.928Z,87.51
2023-05-09T19:49:11.103Z,87.05
2023-05-09T19:51:39.347Z,85.49
2023-05-09T19:54:07.256Z,85.67
2023-05-09T19:56:35.195Z,84.55
2023-05-09T19:59:03.065Z,86.57
2023-05-09T20:01:32.251Z,88.28
2023-05-09T20:04:00.337Z,89.22
2023-05-09T20:06:30.617Z,88.38
2023-05-09T20:08:58.459Z,87.61
2023-05-09T20:11:27.474Z,87.55
2023-05-09T20:13:57.658Z,88.96
2023-05-09T20:16:25.504Z,88.74
2023-05-09T20:18:55.086Z,88.35
2023-05-09T20:21:22.900Z,88.17
2023-05-09T20:23:50.840Z,87.94
2023-05-09T20:26:18.560Z,88.08
2023-05-09T20:28:46.441Z,87.68
2023-05-09T20:31:16.557Z,87.93
2023-05-09T20:33:44.341Z,88.96
2023-05-09T20:36:13.539Z,88.08
2023-05-09T20:38:41.349Z,88.75
2023-05-09T20:41:09.280Z,89.25
2023-05-09T20:43:37.416Z,89.55
2023-05-09T20:46:05.395Z,89.42
2023-05-09T20:48:33.237Z,91.07
2023-05-09T20:51:01.056Z,90.90
2023-05-09T20:53:32.292Z,90.48
2023-05-09T20:56:00.286Z,91.59
2023-05-09T20:58:31.161Z,91.80
2023-05-09T21:00:59.181Z,92.68
2023-05-09T21:03:27.302Z,91.81
2023-05-09T21:05:55.592Z,91.52
2023-05-09T21:08:24.111Z,91.92
2023-05-09T21:10:54.313Z,91.03
2023-05-09T21:13:22.391Z,91.52
2023-05-09T21:15:52.529Z,92.20
2023-05-09T21:18:20.959Z,91.13
2023-05-09T21:20:48.814Z,91.21
2023-05-09T21:23:18.415Z,91.41
2023-05-09T21:25:46.251Z,91.68
2023-05-09T21:28:15.621Z,91.34
2023-05-09T21:30:43.391Z,91.30
2023-05-09T21:33:11.308Z,90.87
2023-05-09T21:35:39.164Z,92.19
2023-05-09T21:38:06.972Z,92.62
2023-05-09T21:40:34.825Z,93.18
2023-05-09T21:43:03.487Z,93.34
2023-05-09T21:45:32.662Z,92.25
2023-05-09T21:48:00.610Z,91.95
2023-05-09T21:50:28.579Z,91.20
2023-05-09T21:52:57.107Z,90.46
2023-05-09T21:55:25.052Z,89.92
2023-05-09T21:57:52.869Z,89.89
2023-05-09T22:00:21.011Z,88.83
2023-05-09T22:02:50.556Z,89.21
2023-05-09T22:05:43.389Z,89.03
2023-05-09T22:08:11.281Z,90.44
2023-05-09T22:10:39.088Z,90.82
2023-05-09T22:13:06.840Z,91.85
2023-05-09T22:15:34.704Z,94.46
2023-05-09T22:18:03.966Z,93.69
2023-05-09T22:20:31.778Z,91.88
2023-05-09T22:22:59.551Z,91.11
2023-05-09T22:25:27.502Z,90.95
2023-05-09T22:27:55.341Z,92.80
2023-05-09T22:30:24.106Z,92.90
2023-05-09T22:32:52.167Z,91.72
2023-05-09T22:35:21.361Z,92.90
2023-05-09T22:37:49.168Z,93.10
2023-05-09T22:40:17.488Z,91.60
2023-05-09T22:42:45.473Z,92.55
2023-05-09T22:45:15.396Z,93.74
2023-05-09T22:47:43.474Z,93.45
2023-05-09T22:50:11.832Z,94.33
2023-05-09T22:52:41.482Z,94.67
2023-05-09T22:55:09.958Z,93.59
2023-05-09T22:57:37.705Z,93.21
2023-05-09T23:00:06.747Z,94.94
2023-05-09T23:02:34.739Z,95.51
2023-05-09T23:05:02.710Z,95.47
2023-05-09T23:07:30.909Z,95.06
2023-05-09T23:10:00.223Z,95.08
2023-05-09T23:12:28.008Z,94.43
2023-05-09T23:14:55.857Z,94.71
2023-05-09T23:17:23.722Z,93.37
2023-05-09T23:19:51.525Z,93.77
2023-05-09T23:22:19.440Z,94.12
2023-05-09T23:24:47.514Z,95.35
2023-05-09T23:27:16.802Z,95.87
2023-05-09T23:29:44.611Z,94.91
2023-05-09T23:32:12.771Z,95.68
2023-05-09T23:34:42.645Z,95.38
2023-05-09T23:37:10.337Z,96.66
2023-05-09T23:39:38.092Z,96.63
2023-05-09T23:42:05.999Z,96.59
2023-05-09T23:44:35.347Z,96.27
2023-05-09T23:47:03.638Z,95.69
2023-05-09T23:49:31.482Z,95.85
2023-05-09T23:51:59.279Z,96.44
2023-05-09T23:54:27.103Z,96.12
2023-05-09T23:56:56.343Z,95.91
2023-05-09T23:59:24.150Z,94.67
